AFL1056 ULLI-UWGG
Flight info
| Callsign | AFL1056 |
|---|---|
| Flight time | 1h 20m |
| Altitude | 35000 |
| Route | SUGIN1A SUGIN T873 NIRGI T73 DESUD P164 GAKLU N869 RANTO T540 POGAS T747 OLATU T784 ADMUL L94 USTOK USTOK2Z |
| Aircraft | A321/M-SDE3FGHIRWY/LB1 |
Departure
| Time | 2026-04-23 17:33 |
|---|---|
| Airport | Pulkovo Airport (ULLI) |
Arrival
| Time | 2026-04-23 18:53 |
|---|---|
| Airport | Nizhny Novgorod / Strigino International Airport (UWGG) |
| Time | Latitude | Longitude | Altitude | Speed | Heading |
|---|---|---|---|---|---|
| 2026-04-23 16:45 | 59.79987 | 30.26741 | 88 ft | 0 kts | 106° |
| 2026-04-23 17:17 | 59.79987 | 30.26742 | 87 ft | 0 kts | 106° |
| 2026-04-23 17:18 | 59.79987 | 30.26747 | 87 ft | 0 kts | 106° |
| 2026-04-23 17:18 | 59.79987 | 30.26748 | 87 ft | 0 kts | 106° |
| 2026-04-23 17:19 | 59.79988 | 30.26741 | 88 ft | 2 kts | 106° |
| 2026-04-23 17:20 | 59.79992 | 30.26712 | 87 ft | 2 kts | 107° |
| 2026-04-23 17:20 | 59.79997 | 30.26664 | 88 ft | 2 kts | 75° |
| 2026-04-23 17:21 | 59.79979 | 30.26620 | 88 ft | 1 kts | 20° |
| 2026-04-23 17:21 | 59.79973 | 30.26617 | 87 ft | 1 kts | 14° |
| 2026-04-23 17:21 | 59.79971 | 30.26616 | 87 ft | 0 kts | 16° |
| 2026-04-23 17:23 | 59.79999 | 30.26632 | 87 ft | 7 kts | 17° |
| 2026-04-23 17:24 | 59.80061 | 30.26673 | 86 ft | 10 kts | 17° |
| 2026-04-23 17:24 | 59.80141 | 30.26720 | 85 ft | 12 kts | 16° |
| 2026-04-23 17:24 | 59.80331 | 30.26829 | 81 ft | 14 kts | 16° |
| 2026-04-23 17:25 | 59.80382 | 30.26962 | 80 ft | 9 kts | 101° |
| 2026-04-23 17:25 | 59.80360 | 30.27121 | 78 ft | 15 kts | 106° |
| 2026-04-23 17:26 | 59.80294 | 30.27562 | 78 ft | 17 kts | 107° |
| 2026-04-23 17:26 | 59.80218 | 30.28080 | 75 ft | 21 kts | 107° |
| 2026-04-23 17:27 | 59.80131 | 30.28665 | 75 ft | 22 kts | 108° |
| 2026-04-23 17:27 | 59.80085 | 30.28964 | 73 ft | 22 kts | 106° |
| 2026-04-23 17:27 | 59.80042 | 30.29257 | 73 ft | 21 kts | 106° |
| 2026-04-23 17:27 | 59.80000 | 30.29540 | 74 ft | 21 kts | 107° |
| 2026-04-23 17:28 | 59.79966 | 30.29768 | 74 ft | 14 kts | 105° |
| 2026-04-23 17:28 | 59.79946 | 30.29900 | 74 ft | 1 kts | 104° |
| 2026-04-23 17:29 | 59.79973 | 30.30091 | 75 ft | 10 kts | 48° |
| 2026-04-23 17:30 | 59.79987 | 30.30124 | 74 ft | 0 kts | 47° |
| 2026-04-23 17:31 | 59.79991 | 30.30132 | 74 ft | 3 kts | 47° |
| 2026-04-23 17:31 | 59.80019 | 30.30192 | 74 ft | 8 kts | 46° |
| 2026-04-23 17:31 | 59.80087 | 30.30271 | 74 ft | 12 kts | 4° |
| 2026-04-23 17:31 | 59.80131 | 30.30198 | 74 ft | 0 kts | 286° |
| 2026-04-23 17:32 | 59.80132 | 30.30192 | 74 ft | 0 kts | 286° |
| 2026-04-23 17:32 | 59.80135 | 30.30173 | 74 ft | 1 kts | 286° |
| 2026-04-23 17:32 | 59.80137 | 30.30157 | 74 ft | 1 kts | 286° |
| 2026-04-23 17:32 | 59.80191 | 30.29796 | 71 ft | 64 kts | 286° |
| 2026-04-23 17:33 | 59.80389 | 30.28492 | 70 ft | 132 kts | 286° |
| 2026-04-23 17:33 | 59.80694 | 30.26422 | 257 ft | 169 kts | 288° |
| 2026-04-23 17:33 | 59.81018 | 30.24151 | 885 ft | 176 kts | 288° |
| 2026-04-23 17:33 | 59.81324 | 30.21784 | 1599 ft | 183 kts | 288° |
| 2026-04-23 17:34 | 59.81631 | 30.19360 | 2360 ft | 186 kts | 291° |
| 2026-04-23 17:34 | 59.82040 | 30.16766 | 2844 ft | 201 kts | 292° |
| 2026-04-23 17:34 | 59.82811 | 30.11850 | 4347 ft | 174 kts | 293° |
| 2026-04-23 17:35 | 59.83148 | 30.09617 | 4799 ft | 170 kts | 293° |
| 2026-04-23 17:35 | 59.83916 | 30.04613 | 5015 ft | 217 kts | 291° |
| 2026-04-23 17:35 | 59.84291 | 30.01491 | 4851 ft | 252 kts | 276° |
| 2026-04-23 17:36 | 59.83798 | 29.98015 | 5096 ft | 280 kts | 237° |
| 2026-04-23 17:36 | 59.82295 | 29.95642 | 6032 ft | 277 kts | 203° |
| 2026-04-23 17:36 | 59.80523 | 29.94600 | 6954 ft | 269 kts | 192° |
| 2026-04-23 17:36 | 59.78677 | 29.93848 | 7564 ft | 274 kts | 191° |
| 2026-04-23 17:37 | 59.76802 | 29.93044 | 8158 ft | 279 kts | 190° |
| 2026-04-23 17:37 | 59.74863 | 29.93057 | 8512 ft | 290 kts | 160° |
| 2026-04-23 17:37 | 59.72279 | 29.98485 | 9529 ft | 276 kts | 99° |
| 2026-04-23 17:38 | 59.71783 | 30.02140 | 10130 ft | 281 kts | 98° |
| 2026-04-23 17:38 | 59.71218 | 30.06010 | 10451 ft | 298 kts | 100° |
| 2026-04-23 17:38 | 59.70520 | 30.10025 | 10749 ft | 315 kts | 103° |
| 2026-04-23 17:38 | 59.69711 | 30.14130 | 11118 ft | 328 kts | 105° |
| 2026-04-23 17:39 | 59.68825 | 30.18296 | 11665 ft | 334 kts | 106° |
| 2026-04-23 17:39 | 59.67882 | 30.22547 | 12248 ft | 339 kts | 107° |
| 2026-04-23 17:39 | 59.66922 | 30.26787 | 12784 ft | 343 kts | 107° |
| 2026-04-23 17:39 | 59.65934 | 30.31091 | 13330 ft | 348 kts | 107° |
| 2026-04-23 17:40 | 59.64933 | 30.35417 | 13860 ft | 352 kts | 107° |
| 2026-04-23 17:40 | 59.63908 | 30.39818 | 14440 ft | 354 kts | 106° |
| 2026-04-23 17:40 | 59.62881 | 30.44214 | 15011 ft | 358 kts | 106° |
| 2026-04-23 17:40 | 59.61835 | 30.48686 | 15451 ft | 362 kts | 106° |
| 2026-04-23 17:41 | 59.60778 | 30.53199 | 15954 ft | 366 kts | 106° |
| 2026-04-23 17:41 | 59.58617 | 30.62379 | 16918 ft | 374 kts | 106° |
| 2026-04-23 17:41 | 59.57523 | 30.67018 | 17419 ft | 377 kts | 106° |
| 2026-04-23 17:42 | 59.55294 | 30.76439 | 18280 ft | 385 kts | 106° |
| 2026-04-23 17:42 | 59.54166 | 30.81184 | 18723 ft | 389 kts | 106° |
| 2026-04-23 17:42 | 59.53011 | 30.86032 | 19148 ft | 392 kts | 106° |
| 2026-04-23 17:43 | 59.51846 | 30.90915 | 19569 ft | 396 kts | 106° |
| 2026-04-23 17:43 | 59.50678 | 30.95788 | 20003 ft | 399 kts | 105° |
| 2026-04-23 17:43 | 59.49501 | 31.00679 | 20443 ft | 401 kts | 105° |
| 2026-04-23 17:43 | 59.48312 | 31.05617 | 20900 ft | 403 kts | 105° |
| 2026-04-23 17:44 | 59.47105 | 31.10621 | 21326 ft | 406 kts | 105° |
| 2026-04-23 17:44 | 59.45888 | 31.15660 | 21724 ft | 408 kts | 105° |
| 2026-04-23 17:44 | 59.43448 | 31.25730 | 22510 ft | 414 kts | 104° |
| 2026-04-23 17:45 | 59.42202 | 31.30851 | 22891 ft | 417 kts | 104° |
| 2026-04-23 17:45 | 59.39702 | 31.41094 | 23631 ft | 423 kts | 104° |
| 2026-04-23 17:45 | 59.38427 | 31.46295 | 24037 ft | 424 kts | 104° |
| 2026-04-23 17:46 | 59.35859 | 31.56738 | 24766 ft | 429 kts | 104° |
| 2026-04-23 17:46 | 59.34576 | 31.61935 | 25124 ft | 430 kts | 104° |
| 2026-04-23 17:46 | 59.33271 | 31.67219 | 25529 ft | 431 kts | 104° |
| 2026-04-23 17:47 | 59.31817 | 31.72457 | 25834 ft | 444 kts | 112° |
| 2026-04-23 17:47 | 59.30036 | 31.77400 | 26189 ft | 451 kts | 117° |
| 2026-04-23 17:47 | 59.26245 | 31.87217 | 26792 ft | 457 kts | 117° |
| 2026-04-23 17:48 | 59.24344 | 31.92191 | 27126 ft | 458 kts | 116° |
| 2026-04-23 17:48 | 59.22478 | 31.97138 | 27494 ft | 459 kts | 116° |
| 2026-04-23 17:48 | 59.20590 | 32.02163 | 27825 ft | 460 kts | 116° |
| 2026-04-23 17:48 | 59.18722 | 32.07168 | 28110 ft | 461 kts | 116° |
| 2026-04-23 17:49 | 59.16842 | 32.12210 | 28368 ft | 463 kts | 116° |
| 2026-04-23 17:49 | 59.14956 | 32.17264 | 28625 ft | 464 kts | 116° |
| 2026-04-23 17:49 | 59.13047 | 32.22369 | 28853 ft | 466 kts | 116° |
| 2026-04-23 17:49 | 59.11147 | 32.27448 | 29071 ft | 468 kts | 116° |
| 2026-04-23 17:50 | 59.09235 | 32.32530 | 29326 ft | 470 kts | 116° |
| 2026-04-23 17:50 | 59.05375 | 32.42778 | 29721 ft | 474 kts | 116° |
| 2026-04-23 17:50 | 59.03424 | 32.47941 | 29926 ft | 476 kts | 116° |
| 2026-04-23 17:51 | 59.01467 | 32.53110 | 30137 ft | 477 kts | 116° |
| 2026-04-23 17:51 | 58.99505 | 32.58282 | 30387 ft | 477 kts | 117° |
| 2026-04-23 17:51 | 58.95598 | 32.68536 | 30965 ft | 472 kts | 118° |
| 2026-04-23 17:52 | 58.93661 | 32.73619 | 31200 ft | 471 kts | 118° |
| 2026-04-23 17:52 | 58.89779 | 32.83772 | 31587 ft | 474 kts | 118° |
| 2026-04-23 17:52 | 58.87801 | 32.88897 | 31654 ft | 478 kts | 118° |
| 2026-04-23 17:53 | 58.83798 | 32.99210 | 31790 ft | 486 kts | 119° |
| 2026-04-23 17:53 | 58.81788 | 33.04386 | 31855 ft | 489 kts | 119° |
| 2026-04-23 17:54 | 58.77688 | 33.14917 | 32051 ft | 494 kts | 120° |
| 2026-04-23 17:54 | 58.75639 | 33.20162 | 32182 ft | 494 kts | 120° |
| 2026-04-23 17:54 | 58.71523 | 33.30684 | 32571 ft | 491 kts | 120° |
| 2026-04-23 17:55 | 58.67437 | 33.41089 | 32870 ft | 491 kts | 120° |
| 2026-04-23 17:55 | 58.65392 | 33.46282 | 33022 ft | 491 kts | 120° |
| 2026-04-23 17:55 | 58.63318 | 33.51537 | 33164 ft | 491 kts | 121° |
| 2026-04-23 17:56 | 58.61274 | 33.56706 | 33315 ft | 491 kts | 121° |
| 2026-04-23 17:56 | 58.57181 | 33.67014 | 33697 ft | 489 kts | 122° |
| 2026-04-23 17:56 | 58.55110 | 33.72228 | 33900 ft | 488 kts | 122° |
| 2026-04-23 17:57 | 58.53061 | 33.77368 | 34105 ft | 488 kts | 122° |
| 2026-04-23 17:57 | 58.51013 | 33.82497 | 34278 ft | 487 kts | 122° |
| 2026-04-23 17:57 | 58.46915 | 33.92714 | 34618 ft | 486 kts | 122° |
| 2026-04-23 17:58 | 58.44870 | 33.97802 | 34635 ft | 485 kts | 122° |
| 2026-04-23 17:58 | 58.40795 | 34.07898 | 34647 ft | 484 kts | 122° |
| 2026-04-23 17:59 | 58.36677 | 34.18056 | 34632 ft | 483 kts | 122° |
| 2026-04-23 17:59 | 58.32602 | 34.28066 | 34642 ft | 484 kts | 122° |
| 2026-04-23 18:00 | 58.28476 | 34.38161 | 34638 ft | 484 kts | 122° |
| 2026-04-23 18:00 | 58.24379 | 34.48146 | 34649 ft | 483 kts | 122° |
| 2026-04-23 18:01 | 58.19991 | 34.57751 | 34650 ft | 487 kts | 129° |
| 2026-04-23 18:01 | 58.14973 | 34.66410 | 34649 ft | 490 kts | 136° |
| 2026-04-23 18:02 | 58.09784 | 34.74598 | 34635 ft | 489 kts | 136° |
| 2026-04-23 18:02 | 58.04572 | 34.82815 | 34629 ft | 489 kts | 136° |
| 2026-04-23 18:03 | 57.99651 | 34.91489 | 34611 ft | 481 kts | 124° |
| 2026-04-23 18:03 | 57.96446 | 35.02222 | 34619 ft | 469 kts | 105° |
| 2026-04-23 18:04 | 57.94981 | 35.13923 | 34628 ft | 462 kts | 95° |
| 2026-04-23 18:04 | 57.93900 | 35.25800 | 34613 ft | 462 kts | 95° |
| 2026-04-23 18:05 | 57.92781 | 35.37682 | 34621 ft | 462 kts | 95° |
| 2026-04-23 18:05 | 57.91638 | 35.49472 | 34610 ft | 462 kts | 96° |
| 2026-04-23 18:06 | 57.90468 | 35.61316 | 34613 ft | 462 kts | 96° |
| 2026-04-23 18:06 | 57.89268 | 35.73178 | 34606 ft | 463 kts | 97° |
| 2026-04-23 18:07 | 57.88055 | 35.84943 | 34602 ft | 463 kts | 97° |
| 2026-04-23 18:07 | 57.86827 | 35.96817 | 34594 ft | 463 kts | 97° |
| 2026-04-23 18:08 | 57.85603 | 36.08658 | 34595 ft | 463 kts | 97° |
| 2026-04-23 18:08 | 57.84377 | 36.20427 | 34589 ft | 463 kts | 97° |
| 2026-04-23 18:09 | 57.83145 | 36.32160 | 34583 ft | 463 kts | 97° |
| 2026-04-23 18:09 | 57.81887 | 36.44014 | 34578 ft | 462 kts | 97° |
| 2026-04-23 18:10 | 57.80626 | 36.55767 | 34579 ft | 463 kts | 97° |
| 2026-04-23 18:10 | 57.79358 | 36.67499 | 34571 ft | 462 kts | 98° |
| 2026-04-23 18:11 | 57.78074 | 36.79297 | 34565 ft | 463 kts | 98° |
| 2026-04-23 18:11 | 57.76786 | 36.91012 | 34559 ft | 463 kts | 98° |
| 2026-04-23 18:12 | 57.75486 | 37.02726 | 34552 ft | 463 kts | 99° |
| 2026-04-23 18:12 | 57.74166 | 37.14501 | 34544 ft | 463 kts | 99° |
| 2026-04-23 18:13 | 57.72841 | 37.26214 | 34538 ft | 462 kts | 99° |
| 2026-04-23 18:13 | 57.71506 | 37.37907 | 34541 ft | 462 kts | 99° |
| 2026-04-23 18:14 | 57.70155 | 37.49646 | 34537 ft | 463 kts | 99° |
| 2026-04-23 18:14 | 57.68799 | 37.61322 | 34534 ft | 463 kts | 99° |
| 2026-04-23 18:15 | 57.67431 | 37.73004 | 34527 ft | 463 kts | 100° |
| 2026-04-23 18:15 | 57.66050 | 37.84727 | 34520 ft | 463 kts | 100° |
| 2026-04-23 18:16 | 57.64666 | 37.96355 | 34517 ft | 463 kts | 100° |
| 2026-04-23 18:16 | 57.63260 | 38.08065 | 34521 ft | 463 kts | 101° |
| 2026-04-23 18:17 | 57.61132 | 38.25571 | 34519 ft | 463 kts | 101° |
| 2026-04-23 18:17 | 57.59700 | 38.37249 | 34506 ft | 463 kts | 101° |
| 2026-04-23 18:18 | 57.58256 | 38.48935 | 34502 ft | 464 kts | 101° |
| 2026-04-23 18:18 | 57.56801 | 38.60589 | 34496 ft | 464 kts | 101° |
| 2026-04-23 18:19 | 57.55341 | 38.72232 | 34497 ft | 464 kts | 102° |
| 2026-04-23 18:19 | 57.53872 | 38.83842 | 34490 ft | 464 kts | 102° |
| 2026-04-23 18:20 | 57.52391 | 38.95452 | 34490 ft | 463 kts | 102° |
| 2026-04-23 18:20 | 57.50897 | 39.07076 | 34478 ft | 463 kts | 102° |
| 2026-04-23 18:21 | 57.49395 | 39.18641 | 34476 ft | 464 kts | 102° |
| 2026-04-23 18:21 | 57.47736 | 39.30156 | 34468 ft | 465 kts | 105° |
| 2026-04-23 18:22 | 57.45878 | 39.41662 | 34475 ft | 466 kts | 105° |
| 2026-04-23 18:22 | 57.44022 | 39.53079 | 34473 ft | 466 kts | 105° |
| 2026-04-23 18:23 | 57.41202 | 39.70299 | 34479 ft | 465 kts | 107° |
| 2026-04-23 18:24 | 57.38379 | 39.87408 | 34474 ft | 466 kts | 107° |
| 2026-04-23 18:25 | 57.35522 | 40.04510 | 34486 ft | 465 kts | 107° |
| 2026-04-23 18:25 | 57.33434 | 40.15822 | 34481 ft | 466 kts | 112° |
| 2026-04-23 18:26 | 57.30875 | 40.26743 | 34480 ft | 467 kts | 114° |
| 2026-04-23 18:26 | 57.28262 | 40.37660 | 34442 ft | 467 kts | 114° |
| 2026-04-23 18:27 | 57.25645 | 40.48571 | 34422 ft | 466 kts | 114° |
| 2026-04-23 18:27 | 57.23015 | 40.59494 | 34166 ft | 467 kts | 114° |
| 2026-04-23 18:27 | 57.21699 | 40.64937 | 33865 ft | 467 kts | 114° |
| 2026-04-23 18:28 | 57.20381 | 40.70394 | 33394 ft | 468 kts | 115° |
| 2026-04-23 18:28 | 57.19078 | 40.75779 | 32911 ft | 469 kts | 115° |
| 2026-04-23 18:28 | 57.17758 | 40.81228 | 32420 ft | 466 kts | 115° |
| 2026-04-23 18:28 | 57.16455 | 40.86600 | 31844 ft | 457 kts | 116° |
| 2026-04-23 18:29 | 57.15181 | 40.91826 | 31329 ft | 449 kts | 116° |
| 2026-04-23 18:29 | 57.13907 | 40.97042 | 30822 ft | 442 kts | 117° |
| 2026-04-23 18:29 | 57.12667 | 41.02084 | 30038 ft | 437 kts | 117° |
| 2026-04-23 18:29 | 57.11418 | 41.07155 | 29646 ft | 435 kts | 118° |
| 2026-04-23 18:30 | 57.10180 | 41.12160 | 29106 ft | 432 kts | 118° |
| 2026-04-23 18:30 | 57.08937 | 41.17169 | 28617 ft | 429 kts | 118° |
| 2026-04-23 18:30 | 57.07711 | 41.22097 | 28087 ft | 426 kts | 118° |
| 2026-04-23 18:30 | 57.06506 | 41.26950 | 27556 ft | 422 kts | 118° |
| 2026-04-23 18:31 | 57.05287 | 41.31836 | 27094 ft | 417 kts | 118° |
| 2026-04-23 18:31 | 57.04100 | 41.36591 | 26586 ft | 412 kts | 118° |
| 2026-04-23 18:31 | 57.02911 | 41.41346 | 26141 ft | 407 kts | 118° |
| 2026-04-23 18:31 | 57.01748 | 41.45980 | 25698 ft | 402 kts | 119° |
| 2026-04-23 18:32 | 57.00587 | 41.50601 | 25223 ft | 397 kts | 119° |
| 2026-04-23 18:32 | 56.99441 | 41.55151 | 24813 ft | 392 kts | 119° |
| 2026-04-23 18:32 | 56.98301 | 41.59667 | 24367 ft | 387 kts | 119° |
| 2026-04-23 18:32 | 56.97187 | 41.64069 | 23968 ft | 381 kts | 119° |
| 2026-04-23 18:33 | 56.96090 | 41.68401 | 23574 ft | 376 kts | 120° |
| 2026-04-23 18:33 | 56.94988 | 41.72749 | 23165 ft | 371 kts | 120° |
| 2026-04-23 18:33 | 56.93919 | 41.76960 | 22766 ft | 367 kts | 119° |
| 2026-04-23 18:33 | 56.92854 | 41.81147 | 22389 ft | 362 kts | 119° |
| 2026-04-23 18:34 | 56.91795 | 41.85296 | 21951 ft | 359 kts | 119° |
| 2026-04-23 18:34 | 56.90758 | 41.89355 | 21566 ft | 355 kts | 119° |
| 2026-04-23 18:34 | 56.89710 | 41.93442 | 21144 ft | 353 kts | 119° |
| 2026-04-23 18:34 | 56.88661 | 41.97484 | 20732 ft | 351 kts | 119° |
| 2026-04-23 18:35 | 56.87619 | 42.01485 | 20320 ft | 348 kts | 119° |
| 2026-04-23 18:35 | 56.86595 | 42.05423 | 19908 ft | 347 kts | 119° |
| 2026-04-23 18:35 | 56.85566 | 42.09403 | 19510 ft | 344 kts | 119° |
| 2026-04-23 18:35 | 56.84558 | 42.13291 | 19128 ft | 342 kts | 118° |
| 2026-04-23 18:36 | 56.83540 | 42.17219 | 18744 ft | 340 kts | 118° |
| 2026-04-23 18:36 | 56.82546 | 42.21050 | 18351 ft | 338 kts | 118° |
| 2026-04-23 18:36 | 56.81543 | 42.24921 | 17952 ft | 336 kts | 118° |
| 2026-04-23 18:36 | 56.80542 | 42.28771 | 17577 ft | 334 kts | 118° |
| 2026-04-23 18:37 | 56.79559 | 42.32547 | 17191 ft | 332 kts | 118° |
| 2026-04-23 18:37 | 56.78565 | 42.36361 | 16790 ft | 330 kts | 118° |
| 2026-04-23 18:37 | 56.77594 | 42.40074 | 16414 ft | 329 kts | 118° |
| 2026-04-23 18:37 | 56.76604 | 42.43858 | 16002 ft | 328 kts | 118° |
| 2026-04-23 18:38 | 56.75634 | 42.47557 | 15592 ft | 328 kts | 118° |
| 2026-04-23 18:38 | 56.74657 | 42.51275 | 15197 ft | 327 kts | 118° |
| 2026-04-23 18:38 | 56.73676 | 42.54997 | 14794 ft | 326 kts | 118° |
| 2026-04-23 18:38 | 56.72720 | 42.58727 | 14403 ft | 325 kts | 117° |
| 2026-04-23 18:39 | 56.71790 | 42.62463 | 14030 ft | 324 kts | 117° |
| 2026-04-23 18:39 | 56.70881 | 42.66129 | 13676 ft | 322 kts | 117° |
| 2026-04-23 18:39 | 56.69957 | 42.69864 | 13291 ft | 320 kts | 117° |
| 2026-04-23 18:39 | 56.69059 | 42.73489 | 12925 ft | 319 kts | 117° |
| 2026-04-23 18:40 | 56.68144 | 42.77170 | 12510 ft | 318 kts | 117° |
| 2026-04-23 18:40 | 56.67242 | 42.80792 | 12125 ft | 315 kts | 118° |
| 2026-04-23 18:40 | 56.66340 | 42.84405 | 11731 ft | 313 kts | 118° |
| 2026-04-23 18:40 | 56.65456 | 42.87935 | 11353 ft | 310 kts | 117° |
| 2026-04-23 18:41 | 56.64563 | 42.91481 | 11020 ft | 308 kts | 118° |
| 2026-04-23 18:41 | 56.63675 | 42.95020 | 10647 ft | 307 kts | 117° |
| 2026-04-23 18:41 | 56.62799 | 42.98500 | 10274 ft | 306 kts | 118° |
| 2026-04-23 18:41 | 56.61907 | 43.02031 | 9896 ft | 305 kts | 117° |
| 2026-04-23 18:42 | 56.61034 | 43.05477 | 9548 ft | 301 kts | 117° |
| 2026-04-23 18:42 | 56.60178 | 43.08870 | 9429 ft | 288 kts | 118° |
| 2026-04-23 18:42 | 56.59372 | 43.12078 | 9395 ft | 275 kts | 118° |
| 2026-04-23 18:42 | 56.58584 | 43.15167 | 9342 ft | 269 kts | 119° |
| 2026-04-23 18:43 | 56.57796 | 43.18246 | 8992 ft | 270 kts | 119° |
| 2026-04-23 18:43 | 56.57008 | 43.21336 | 8669 ft | 268 kts | 118° |
| 2026-04-23 18:43 | 56.56229 | 43.24388 | 8356 ft | 266 kts | 119° |
| 2026-04-23 18:43 | 56.55457 | 43.27414 | 8035 ft | 265 kts | 119° |
| 2026-04-23 18:44 | 56.54697 | 43.30386 | 7728 ft | 263 kts | 118° |
| 2026-04-23 18:44 | 56.53923 | 43.33406 | 7416 ft | 261 kts | 119° |
| 2026-04-23 18:44 | 56.53167 | 43.36361 | 7106 ft | 260 kts | 120° |
| 2026-04-23 18:44 | 56.52411 | 43.39308 | 6805 ft | 258 kts | 120° |
| 2026-04-23 18:45 | 56.51657 | 43.42236 | 6501 ft | 257 kts | 119° |
| 2026-04-23 18:45 | 56.50907 | 43.45128 | 6197 ft | 256 kts | 119° |
| 2026-04-23 18:45 | 56.50162 | 43.48016 | 5900 ft | 254 kts | 118° |
| 2026-04-23 18:45 | 56.49423 | 43.50885 | 5617 ft | 252 kts | 119° |
| 2026-04-23 18:46 | 56.48680 | 43.53757 | 5315 ft | 250 kts | 120° |
| 2026-04-23 18:46 | 56.47947 | 43.56596 | 5045 ft | 248 kts | 119° |
| 2026-04-23 18:46 | 56.47222 | 43.59394 | 4766 ft | 246 kts | 118° |
| 2026-04-23 18:46 | 56.46508 | 43.62147 | 4475 ft | 243 kts | 120° |
| 2026-04-23 18:47 | 56.45790 | 43.64912 | 4210 ft | 242 kts | 119° |
| 2026-04-23 18:47 | 56.45103 | 43.67578 | 4145 ft | 232 kts | 121° |
| 2026-04-23 18:47 | 56.44414 | 43.70223 | 4105 ft | 230 kts | 119° |
| 2026-04-23 18:47 | 56.43742 | 43.72824 | 4050 ft | 231 kts | 121° |
| 2026-04-23 18:48 | 56.43057 | 43.75456 | 3894 ft | 228 kts | 121° |
| 2026-04-23 18:48 | 56.42396 | 43.77982 | 3714 ft | 221 kts | 121° |
| 2026-04-23 18:48 | 56.41748 | 43.80465 | 3599 ft | 218 kts | 121° |
| 2026-04-23 18:48 | 56.41114 | 43.82881 | 3418 ft | 212 kts | 120° |
| 2026-04-23 18:49 | 56.40345 | 43.85058 | 3145 ft | 204 kts | 144° |
| 2026-04-23 18:49 | 56.39119 | 43.86002 | 2997 ft | 184 kts | 183° |
| 2026-04-23 18:49 | 56.37967 | 43.85437 | 2986 ft | 167 kts | 206° |
| 2026-04-23 18:49 | 56.36950 | 43.84444 | 2956 ft | 167 kts | 206° |
| 2026-04-23 18:50 | 56.36235 | 43.83860 | 2814 ft | 168 kts | 201° |
| 2026-04-23 18:50 | 56.34766 | 43.82997 | 2473 ft | 163 kts | 196° |
| 2026-04-23 18:50 | 56.33689 | 43.82507 | 2237 ft | 158 kts | 193° |
| 2026-04-23 18:50 | 56.32659 | 43.82104 | 2045 ft | 147 kts | 192° |
| 2026-04-23 18:51 | 56.31688 | 43.81748 | 1815 ft | 139 kts | 191° |
| 2026-04-23 18:51 | 56.30750 | 43.81409 | 1620 ft | 137 kts | 191° |
| 2026-04-23 18:51 | 56.29816 | 43.81072 | 1433 ft | 138 kts | 191° |
| 2026-04-23 18:51 | 56.28878 | 43.80730 | 1242 ft | 139 kts | 191° |
| 2026-04-23 18:52 | 56.27927 | 43.80384 | 1053 ft | 140 kts | 191° |
| 2026-04-23 18:52 | 56.26976 | 43.80033 | 864 ft | 141 kts | 192° |
| 2026-04-23 18:52 | 56.26015 | 43.79655 | 714 ft | 142 kts | 192° |
| 2026-04-23 18:52 | 56.25043 | 43.79312 | 488 ft | 143 kts | 191° |
| 2026-04-23 18:53 | 56.24060 | 43.78965 | 277 ft | 144 kts | 192° |
| 2026-04-23 18:53 | 56.23145 | 43.78629 | 249 ft | 116 kts | 192° |
| 2026-04-23 18:53 | 56.22514 | 43.78405 | 248 ft | 66 kts | 191° |
| 2026-04-23 18:53 | 56.22206 | 43.78294 | 249 ft | 36 kts | 192° |
| 2026-04-23 18:54 | 56.22013 | 43.78221 | 249 ft | 12 kts | 189° |
| 2026-04-23 18:54 | 56.21946 | 43.78286 | 250 ft | 11 kts | 115° |
| 2026-04-23 18:54 | 56.21928 | 43.78423 | 251 ft | 11 kts | 101° |
| 2026-04-23 18:54 | 56.21915 | 43.78550 | 251 ft | 9 kts | 100° |
| 2026-04-23 18:55 | 56.21915 | 43.78665 | 251 ft | 7 kts | 86° |
| 2026-04-23 18:55 | 56.21912 | 43.78739 | 253 ft | 4 kts | 99° |
| 2026-04-23 18:55 | 56.21908 | 43.78779 | 254 ft | 2 kts | 101° |
| 2026-04-23 18:55 | 56.21906 | 43.78798 | 254 ft | 0 kts | 101° |
| 2026-04-23 18:56 | 56.21904 | 43.78816 | 254 ft | 2 kts | 101° |
| 2026-04-23 18:56 | 56.21902 | 43.78836 | 255 ft | 0 kts | 102° |